LJPZ/POW METAR and TAF weather

Enter ICAO airport designator
Station Type Date Time Source
LJPZ METAR 2022/05/24 12:30 UTC NOAA

LJPZ 241230Z 20013KT 160V240 9999 FEW050 SCT210 27/14 Q1007


Station Type Date Time Source
LJPZ Decoded METAR 2022/05/24 12:30 UTC NOAA

Portoroz, Slovenia (LJPZ) 45-31N 013-34E
May 24, 2022 - 08:30 AM EDT / 2022.05.24 1230 UTC
Wind: from the SSW (200 degrees) at 15 MPH (13 KT) (direction variable):0
Visibility: greater than 7 mile(s):0
Sky conditions: partly cloudy
Temperature: 80 F (27 C)
Dew Point: 57 F (14 C)
Relative Humidity: 44%
Pressure (altimeter): 29.74 in. Hg (1007 hPa)
ob: LJPZ 241230Z 20013KT 160V240 9999 FEW050 SCT210 27/14 Q1007
cycle: 12

Station Type Date Time Source
LJPZ TAF 2020/09/27 12:21 UTC NOAA

TAF TAF LJPZ 271100Z 2712/2821 30003KT 9999 FEW050 PROB30
TEMPO 2712/2718 -SHRA SCT040TCU BKN070
BECMG 2718/2720 06012G25KT RA

Example: see airport list